Aeroporto :
LOGIN :

Iscrizione | Disclaimer

   EN    FR    IT 

 










Sommario :    VFR   VFR Marginale   IFR   IFR Intensivo   IFR Molto Intensivo
Visibilità : 
Base nubi : 
>= 8 km
>= 3000ft
5 / 8 km
1000 / 3000 ft
1500m / 5 km
500 / 1000 ft
800 / 1500m
200 / 500 ft
< 800m
< 200 ft
Simboli :   Temporali  Nebbia  Neve Forte  Precipitazioni Forti  Vento > 20 kt
SIGMETs :   Varie  Temporali  Ghiacco  Turbolenza  Onda orograficha  Ceneri Vulcaniche







- Altitudine del aeroporto : 1234 ft
- Codice IATA : LUX


ELLX - Luxembourg Findel

ULTIMO METAR :
  • 260720Z 22005KT 200V260 9999 SCT005 BKN014 07/06 Q1014 TEMPO BKN008

METARs OBSOLETI :
  • 260650Z 20006KT 170V230 9999 SCT005 BKN010 07/06 Q1014 TEMPO BKN008
  • 260620Z 21006KT 180V240 9999 SCT008 BKN012 07/06 Q1013 NOSIG
  • 260550Z 24008KT 9999 SCT005 BKN009 07/06 Q1013 NOSIG
  • 260520Z 21006KT 180V240 9000 FEW003 SCT005 BKN010 07/06 Q1012 TEMPO BKN006
  • 260450Z 20006KT 9999 SCT010 BKN014 07/06 Q1012 NOSIG

TAF COR TAF ELLX
Valido dal 26 a 06 ore il 27 a 12 ore UTC


260500Z 2606/2712 20008KT 9999 BKN007
BECMG 2607/2610 BKN020
PROB40
TEMPO 2611/2620 -SHRA SCT010TCU BKN014
BECMG 2703/2706 26015G25KT 9999 BKN012
TEMPO 2709/2712 27020G35KT 6000 -SHRA -TS BKN010CB
ATIS : +352 4798 27300
Met : +352 4798 27010 / 27050
Nessun NOTAM noto per questo aeroporto.



MetMap, La meteo Aeronautica in un colpo d'occhio ! - Copyright ORBIFLY Dicembre 2007 - Disclaimer

ORBIFLY MET'MAP TEAM :

Programmazione e sviluppo : Alexandra Zaïnal
Concezione e sviluppo : Baudouin d'Aumeries
Co-Programmazione e sviluppo : Marc-Olivier Méhu
Supporto tecnico e logistico : Manuel Goepfert
Aiuto per la traduzione : Arnaldo La Scala

Contatto : metmap@orbifly.com




FONTI E CREDITI :

   NOAA